Time;durP1;ratioP1;P1;durP2;ratioP2;P2;SDS_P1;SDS_P2;PMS_P1;PMS_P2;Temp;Humidity;BMP_temperature;BMP_pressure;BME280_temperature;BME280_humidity;BME280_pressure;Samples;Min_cycle;Max_cycle;Signal;HPM_P1;HPM_P2
2024/01/07 00:01:24;;;;;;;4.40;3.42;;;6.70;99.90;;;;;;5008185;28;20116;-50
2024/01/07 00:03:51;;;;;;;3.55;3.25;;;6.70;99.90;;;;;;5007799;28;20157;-46
2024/01/07 00:06:17;;;;;;;4.43;3.25;;;6.60;99.90;;;;;;5008173;28;20549;-49
2024/01/07 00:08:42;;;;;;;4.30;3.50;;;6.50;99.90;;;;;;5008015;28;20171;-49
2024/01/07 00:11:08;;;;;;;4.57;3.78;;;6.50;99.90;;;;;;5008234;28;20037;-45
2024/01/07 00:13:33;;;;;;;5.05;3.20;;;6.50;99.90;;;;;;5007888;28;20052;-49
2024/01/07 00:15:59;;;;;;;3.42;3.13;;;6.60;99.90;;;;;;5008273;28;20033;-47
2024/01/07 00:18:24;;;;;;;4.10;3.50;;;6.50;99.90;;;;;;5008376;28;20042;-44
2024/01/07 00:20:50;;;;;;;4.35;2.97;;;6.50;99.90;;;;;;5008772;28;20104;-49
2024/01/07 00:23:16;;;;;;;4.03;3.42;;;6.60;99.90;;;;;;5007789;28;20116;-48
2024/01/07 00:25:41;;;;;;;4.32;3.75;;;6.60;99.90;;;;;;5007847;28;20033;-42
2024/01/07 00:28:07;;;;;;;4.47;3.45;;;6.60;99.90;;;;;;5011722;28;20033;-44
2024/01/07 00:30:32;;;;;;;3.80;3.38;;;6.70;99.90;;;;;;5012178;28;20040;-45
2024/01/07 00:32:58;;;;;;;3.58;3.28;;;6.60;99.90;;;;;;5012126;28;20030;-49
2024/01/07 00:35:23;;;;;;;4.18;3.65;;;6.60;99.90;;;;;;5014409;28;20113;-46
2024/01/07 00:37:49;;;;;;;4.22;3.35;;;6.50;99.90;;;;;;5014337;28;20022;-48
2024/01/07 00:40:14;;;;;;;4.75;3.58;;;6.60;99.90;;;;;;4996887;28;20022;-47
2024/01/07 00:42:40;;;;;;;4.30;3.67;;;6.60;99.90;;;;;;5014197;28;20397;-47
2024/01/07 00:45:06;;;;;;;4.60;3.60;;;6.60;99.90;;;;;;5014183;28;20022;-47
2024/01/07 00:47:31;;;;;;;4.95;3.80;;;6.70;99.90;;;;;;5014312;28;20492;-47
2024/01/07 00:49:57;;;;;;;4.20;3.65;;;6.70;99.90;;;;;;5014374;28;20025;-51
2024/01/07 00:52:23;;;;;;;4.80;3.45;;;6.70;99.90;;;;;;5014062;28;20022;-45
2024/01/07 00:54:48;;;;;;;3.90;3.50;;;6.80;99.90;;;;;;5013842;28;20022;-47
2024/01/07 00:57:14;;;;;;;4.68;3.22;;;6.90;99.90;;;;;;5014256;28;20041;-43
2024/01/07 00:59:39;;;;;;;4.88;3.75;;;6.70;99.90;;;;;;5014153;28;20042;-46
2024/01/07 01:02:05;;;;;;;6.22;4.18;;;6.70;99.90;;;;;;5014470;28;20030;-49
2024/01/07 01:04:30;;;;;;;16.05;10.52;;;6.70;99.90;;;;;;5014537;28;20029;-42
2024/01/07 01:06:56;;;;;;;8.77;6.10;;;6.70;99.90;;;;;;5014362;28;20026;-41
2024/01/07 01:09:21;;;;;;;7.15;4.53;;;6.70;99.90;;;;;;5014013;28;20091;-41
2024/01/07 01:11:47;;;;;;;5.18;3.55;;;6.70;99.90;;;;;;5013958;28;20108;-44
2024/01/07 01:14:12;;;;;;;3.72;3.38;;;6.70;99.90;;;;;;5013833;28;20026;-41
2024/01/07 01:16:38;;;;;;;3.55;3.25;;;6.70;99.90;;;;;;5014032;28;20036;-41
2024/01/07 01:19:03;;;;;;;2.65;2.45;;;6.60;99.90;;;;;;5014019;28;20101;-45
2024/01/07 01:21:29;;;;;;;2.83;2.63;;;6.40;99.90;;;;;;5013770;28;20493;-40
2024/01/07 01:23:54;;;;;;;2.83;2.50;;;6.20;99.90;;;;;;5013380;28;20050;-41
2024/01/07 01:26:20;;;;;;;2.75;2.50;;;6.10;99.90;;;;;;4996086;28;20029;-41
2024/01/07 01:28:45;;;;;;;2.63;2.35;;;6.00;99.90;;;;;;5013812;28;20506;-41
2024/01/07 01:31:14;;;;;;;3.78;2.75;;;5.80;99.90;;;;;;5013589;28;20026;-39
2024/01/07 01:33:40;;;;;;;3.72;2.88;;;5.70;99.90;;;;;;5013290;28;20029;-42
2024/01/07 01:36:06;;;;;;;3.30;2.88;;;5.70;99.90;;;;;;5013452;28;20504;-41
2024/01/07 01:38:31;;;;;;;2.65;2.45;;;5.70;99.90;;;;;;5013490;28;20034;-40
2024/01/07 01:40:57;;;;;;;5.43;2.40;;;5.70;99.90;;;;;;4995728;28;20041;-41
2024/01/07 01:43:27;;;;;;;2.70;2.50;;;5.70;99.90;;;;;;5013093;28;20018;-43
2024/01/07 01:45:56;;;;;;;4.47;2.72;;;5.60;99.90;;;;;;4995895;28;20026;-42
2024/01/07 01:48:23;;;;;;;2.78;2.55;;;5.60;99.90;;;;;;5013289;28;20065;-41
2024/01/07 01:50:49;;;;;;;2.97;2.47;;;5.60;99.90;;;;;;5013049;28;20024;-44
2024/01/07 01:53:15;;;;;;;3.25;2.70;;;5.60;99.90;;;;;;5012950;28;20034;-42
2024/01/07 01:55:44;;;;;;;3.30;2.40;;;5.70;99.90;;;;;;5013169;28;20084;-41
2024/01/07 01:58:10;;;;;;;2.58;2.38;;;5.60;99.90;;;;;;5013163;28;20026;-40
2024/01/07 02:00:35;;;;;;;2.83;2.42;;;5.50;99.90;;;;;;4995476;28;20032;-43
2024/01/07 02:03:01;;;;;;;3.40;3.10;;;5.50;99.90;;;;;;5012873;28;20105;-38
2024/01/07 02:05:27;;;;;;;2.47;2.28;;;5.50;99.90;;;;;;5012854;28;20030;-41
2024/01/07 02:07:56;;;;;;;2.75;2.22;;;5.40;99.90;;;;;;5013057;28;20080;-40
2024/01/07 02:10:22;;;;;;;2.22;1.90;;;5.40;99.90;;;;;;5012827;28;20018;-42
2024/01/07 02:12:48;;;;;;;2.33;2.13;;;5.50;99.90;;;;;;5012758;28;20533;-40
2024/01/07 02:15:14;;;;;;;2.35;1.92;;;5.50;99.90;;;;;;5012691;28;20509;-40
2024/01/07 02:17:39;;;;;;;2.40;2.20;;;5.50;99.90;;;;;;5012769;28;20044;-42
2024/01/07 02:20:05;;;;;;;2.10;2.00;;;5.50;99.90;;;;;;4994913;28;20390;-40
2024/01/07 02:22:30;;;;;;;2.38;2.17;;;5.50;99.90;;;;;;5012431;28;20033;-39
2024/01/07 02:24:56;;;;;;;1.98;1.88;;;5.50;99.90;;;;;;5012453;28;20111;-42
2024/01/07 02:27:21;;;;;;;2.58;2.38;;;5.50;99.90;;;;;;5012607;28;20022;-40
2024/01/07 02:29:47;;;;;;;2.72;2.53;;;5.50;99.90;;;;;;5013155;28;20065;-41
2024/01/07 02:32:12;;;;;;;2.47;2.17;;;5.50;99.90;;;;;;5012288;28;20124;-42
2024/01/07 02:34:38;;;;;;;2.88;2.25;;;5.50;99.90;;;;;;5012472;28;20029;-40
2024/01/07 02:37:03;;;;;;;2.00;1.90;;;5.50;99.90;;;;;;5012167;28;20034;-40
2024/01/07 02:39:29;;;;;;;2.90;2.70;;;5.50;99.90;;;;;;5012475;28;20417;-45
2024/01/07 02:41:54;;;;;;;2.60;2.20;;;5.50;99.90;;;;;;4994582;28;20374;-44
2024/01/07 02:44:20;;;;;;;2.85;2.13;;;5.50;99.90;;;;;;5012112;28;20017;-41
2024/01/07 02:46:46;;;;;;;2.30;2.10;;;5.60;99.90;;;;;;4994634;28;20022;-42
2024/01/07 02:49:12;;;;;;;2.67;2.40;;;5.50;99.90;;;;;;5011901;28;20042;-40
2024/01/07 02:51:38;;;;;;;3.47;2.30;;;5.40;99.90;;;;;;5012122;28;20026;-41
2024/01/07 02:54:03;;;;;;;2.10;2.00;;;5.40;99.90;;;;;;5011977;28;20029;-42
2024/01/07 02:56:29;;;;;;;2.40;2.20;;;5.40;99.90;;;;;;5012154;28;20596;-42
2024/01/07 02:58:54;;;;;;;2.88;2.22;;;5.40;99.90;;;;;;5012234;28;20046;-41
2024/01/07 03:01:23;;;;;;;2.50;2.10;;;5.40;99.90;;;;;;5011972;28;20029;-41
2024/01/07 03:03:48;;;;;;;2.35;2.10;;;5.40;99.90;;;;;;5011823;28;20505;-41
2024/01/07 03:06:13;;;;;;;2.55;2.13;;;5.40;99.90;;;;;;4994323;28;20109;-42
2024/01/07 03:08:39;;;;;;;2.30;2.10;;;5.40;99.90;;;;;;5012102;28;20374;-41
2024/01/07 03:11:06;;;;;;;2.08;1.90;;;5.40;99.90;;;;;;5012045;28;20021;-41
2024/01/07 03:13:32;;;;;;;2.45;2.25;;;5.40;99.90;;;;;;5013689;28;20069;-39
2024/01/07 03:15:57;;;;;;;2.40;2.20;;;5.40;99.90;;;;;;5013182;28;20444;-41
2024/01/07 03:18:23;;;;;;;2.47;2.28;;;5.40;99.90;;;;;;5013155;28;20105;-40
2024/01/07 03:20:48;;;;;;;2.45;2.25;;;5.40;99.90;;;;;;5012876;28;20022;-42
2024/01/07 03:23:14;;;;;;;2.08;1.98;;;5.40;99.90;;;;;;5012334;28;20022;-40
2024/01/07 03:25:39;;;;;;;2.08;1.90;;;5.40;99.90;;;;;;5012016;28;20527;-43
2024/01/07 03:28:05;;;;;;;3.20;2.35;;;5.50;99.90;;;;;;5012116;28;20022;-40
2024/01/07 03:30:30;;;;;;;3.55;3.00;;;5.50;99.90;;;;;;5011726;28;20021;-42
2024/01/07 03:32:56;;;;;;;2.85;2.65;;;5.50;99.90;;;;;;5011444;28;20042;-41
2024/01/07 03:35:23;;;;;;;2.35;2.15;;;5.40;99.90;;;;;;5011454;28;20026;-40
2024/01/07 03:37:49;;;;;;;2.67;2.35;;;5.40;99.90;;;;;;5011386;28;20026;-39
2024/01/07 03:40:15;;;;;;;2.70;2.50;;;5.30;99.90;;;;;;5011679;28;20108;-41
2024/01/07 03:42:40;;;;;;;2.72;2.50;;;5.20;99.90;;;;;;5011395;28;20030;-42
2024/01/07 03:45:06;;;;;;;2.67;2.47;;;5.20;99.90;;;;;;5011551;28;20034;-40
2024/01/07 03:47:31;;;;;;;3.53;2.70;;;5.20;99.90;;;;;;5011643;28;20030;-41
2024/01/07 03:49:57;;;;;;;4.47;3.05;;;5.20;99.90;;;;;;5011566;28;20026;-42
2024/01/07 03:52:23;;;;;;;3.25;2.95;;;5.10;99.90;;;;;;5011527;28;20508;-40
2024/01/07 03:54:48;;;;;;;3.35;2.95;;;5.10;99.90;;;;;;4993831;28;20354;-40
2024/01/07 03:57:14;;;;;;;4.10;2.97;;;5.10;99.90;;;;;;5012509;28;20041;-41
2024/01/07 03:59:39;;;;;;;4.20;3.22;;;5.00;99.90;;;;;;4994424;28;20091;-45
2024/01/07 04:02:04;;;;;;;2.80;2.60;;;5.10;99.90;;;;;;5013430;28;20437;-41
2024/01/07 04:04:30;;;;;;;6.15;3.38;;;5.10;99.90;;;;;;5015439;28;20057;-40
2024/01/07 04:06:56;;;;;;;3.80;3.10;;;5.10;99.90;;;;;;5015579;28;20458;-44
2024/01/07 04:09:21;;;;;;;5.70;3.80;;;5.10;99.90;;;;;;4997729;28;20117;-40
2024/01/07 04:11:47;;;;;;;4.10;3.70;;;5.10;99.90;;;;;;5014960;28;20493;-42
2024/01/07 04:14:17;;;;;;;3.85;3.47;;;5.10;99.90;;;;;;5015032;28;20045;-41
2024/01/07 04:16:42;;;;;;;4.78;4.13;;;5.10;99.90;;;;;;5015352;28;20046;-43
2024/01/07 04:19:08;;;;;;;5.22;4.15;;;5.10;99.90;;;;;;5015040;28;20442;-43
2024/01/07 04:21:33;;;;;;;4.88;3.60;;;5.10;99.90;;;;;;4997738;28;20026;-38
2024/01/07 04:23:59;;;;;;;4.25;3.20;;;5.10;99.90;;;;;;4997114;28;20024;-40
2024/01/07 04:26:24;;;;;;;4.88;3.70;;;5.10;99.90;;;;;;5015151;28;20029;-41
2024/01/07 04:28:50;;;;;;;5.88;3.78;;;5.10;99.90;;;;;;4997390;28;20022;-38
2024/01/07 04:31:15;;;;;;;5.65;3.60;;;5.10;99.90;;;;;;5014846;28;20073;-38
2024/01/07 04:33:41;;;;;;;5.25;4.00;;;5.10;99.90;;;;;;5014310;28;20496;-40
2024/01/07 04:36:07;;;;;;;5.07;4.25;;;5.10;99.90;;;;;;5014775;28;20046;-44
2024/01/07 04:38:32;;;;;;;6.55;4.10;;;5.10;99.90;;;;;;5014519;28;20452;-39
2024/01/07 04:40:58;;;;;;;7.38;4.10;;;5.10;99.90;;;;;;4997032;28;20026;-38
2024/01/07 04:43:23;;;;;;;5.13;4.07;;;5.10;99.90;;;;;;5014292;28;20482;-39
2024/01/07 04:45:49;;;;;;;5.82;3.83;;;5.10;99.90;;;;;;5014721;28;20022;-39
2024/01/07 04:48:14;;;;;;;5.85;3.88;;;5.10;99.90;;;;;;5014560;28;20353;-39
2024/01/07 04:50:43;;;;;;;4.43;3.85;;;5.10;99.90;;;;;;5014439;28;20105;-40
2024/01/07 04:53:09;;;;;;;5.50;4.07;;;5.10;99.90;;;;;;5014117;28;20022;-40
2024/01/07 04:55:35;;;;;;;6.25;4.43;;;5.20;99.90;;;;;;5014384;28;20030;-38
2024/01/07 04:58:01;;;;;;;7.85;4.25;;;5.10;99.90;;;;;;5014517;28;20022;-37
2024/01/07 05:00:27;;;;;;;7.25;4.72;;;5.10;99.90;;;;;;5014295;28;20570;-40
2024/01/07 05:02:52;;;;;;;5.15;4.25;;;5.10;99.90;;;;;;5014371;28;20026;-39
2024/01/07 05:05:18;;;;;;;5.57;3.30;;;5.20;99.90;;;;;;5014072;28;20026;-40
2024/01/07 05:07:43;;;;;;;4.88;4.18;;;5.10;99.90;;;;;;5014089;28;20137;-40
2024/01/07 05:10:09;;;;;;;6.35;4.32;;;5.20;99.90;;;;;;5014194;28;20573;-39
2024/01/07 05:12:35;;;;;;;6.68;4.53;;;5.10;99.90;;;;;;5013685;28;20073;-42
2024/01/07 05:15:00;;;;;;;9.18;6.35;;;5.10;99.90;;;;;;5013830;28;20371;-40
2024/01/07 05:17:25;;;;;;;7.07;4.72;;;5.10;99.90;;;;;;5013885;28;20038;-39
2024/01/07 05:19:51;;;;;;;7.30;4.85;;;5.10;99.90;;;;;;5013807;28;20026;-40
2024/01/07 05:22:16;;;;;;;6.13;4.68;;;5.00;99.90;;;;;;5013626;28;20045;-40
2024/01/07 05:24:42;;;;;;;9.40;5.10;;;5.10;99.90;;;;;;5013678;28;20029;-39
2024/01/07 05:27:09;;;;;;;5.32;4.60;;;5.10;99.90;;;;;;5013848;28;20037;-39
2024/01/07 05:29:34;;;;;;;8.07;5.72;;;5.10;99.90;;;;;;5013792;28;20033;-44
2024/01/07 05:32:00;;;;;;;10.57;5.97;;;5.00;99.90;;;;;;5013401;28;20022;-39
2024/01/07 05:34:26;;;;;;;8.05;5.45;;;5.00;99.90;;;;;;5013409;28;20062;-40
2024/01/07 05:36:52;;;;;;;9.15;5.75;;;4.90;99.90;;;;;;5013628;28;20100;-38
2024/01/07 05:39:17;;;;;;;8.32;5.40;;;4.90;99.90;;;;;;5013670;28;20453;-40
2024/01/07 05:41:43;;;;;;;9.55;6.32;;;4.90;99.90;;;;;;5013409;28;20041;-44
2024/01/07 05:44:09;;;;;;;7.45;5.88;;;4.90;99.90;;;;;;5013193;28;20030;-41
2024/01/07 05:46:37;;;;;;;7.97;5.78;;;5.00;99.90;;;;;;5013454;28;20116;-40
2024/01/07 05:49:03;;;;;;;7.70;5.47;;;5.00;99.90;;;;;;5013357;28;20036;-42
2024/01/07 05:51:28;;;;;;;9.90;6.40;;;5.00;99.90;;;;;;5013288;28;20030;-39
2024/01/07 05:53:54;;;;;;;11.82;7.05;;;5.00;99.90;;;;;;5012961;28;20026;-39
2024/01/07 05:56:19;;;;;;;11.48;7.93;;;5.00;99.90;;;;;;5013448;28;20058;-41
2024/01/07 05:58:45;;;;;;;13.23;7.88;;;5.10;99.90;;;;;;5013227;28;20025;-40
2024/01/07 06:01:10;;;;;;;9.90;7.72;;;5.10;99.90;;;;;;5013304;28;20053;-40
2024/01/07 06:03:36;;;;;;;10.85;7.70;;;5.10;99.90;;;;;;5012876;28;20034;-42
2024/01/07 06:06:01;;;;;;;11.65;7.97;;;5.10;99.90;;;;;;4995568;28;20410;-40
2024/01/07 06:08:27;;;;;;;12.23;8.07;;;5.00;99.90;;;;;;5016359;28;20486;-40
2024/01/07 06:10:52;;;;;;;14.30;9.38;;;5.10;99.90;;;;;;5016096;28;20033;-40
2024/01/07 06:13:18;;;;;;;13.48;8.63;;;5.10;99.90;;;;;;5016387;28;20370;-40
2024/01/07 06:15:43;;;;;;;12.90;8.15;;;5.00;99.90;;;;;;5016376;28;20026;-39
2024/01/07 06:18:09;;;;;;;15.65;7.95;;;5.00;99.90;;;;;;5015151;28;20033;-41
2024/01/07 06:20:34;;;;;;;12.20;8.32;;;5.00;99.90;;;;;;5012843;28;20030;-42
2024/01/07 06:23:00;;;;;;;9.68;7.78;;;5.00;99.90;;;;;;5012727;28;20041;-36
2024/01/07 06:25:26;;;;;;;12.75;6.95;;;5.00;99.90;;;;;;5011973;28;20052;-39
2024/01/07 06:27:51;;;;;;;8.98;6.88;;;5.00;99.90;;;;;;5012931;28;20033;-41
2024/01/07 06:30:19;;;;;;;9.90;7.35;;;5.00;99.90;;;;;;5012740;28;20022;-39
2024/01/07 06:32:45;;;;;;;12.63;8.50;;;5.00;99.90;;;;;;5012343;28;20025;-40
2024/01/07 06:35:11;;;;;;;12.57;8.48;;;5.00;99.90;;;;;;5012402;28;20052;-39
2024/01/07 06:37:36;;;;;;;10.63;6.82;;;4.90;99.90;;;;;;5012632;28;20053;-40
2024/01/07 06:40:03;;;;;;;11.85;8.02;;;4.90;99.90;;;;;;5012486;28;20058;-39
2024/01/07 06:42:28;;;;;;;9.27;7.15;;;4.90;99.90;;;;;;5012134;28;20029;-40
2024/01/07 06:44:54;;;;;;;10.20;6.97;;;4.90;99.90;;;;;;5012201;28;20397;-40
2024/01/07 06:47:19;;;;;;;9.18;7.30;;;4.90;99.90;;;;;;5012348;28;20108;-43
2024/01/07 06:49:45;;;;;;;9.70;6.60;;;4.80;99.90;;;;;;5012379;28;20044;-38
2024/01/07 06:52:11;;;;;;;9.15;6.47;;;4.80;99.90;;;;;;4994730;28;20481;-40
2024/01/07 06:54:36;;;;;;;9.25;6.30;;;4.70;99.90;;;;;;4994307;28;20433;-39
2024/01/07 06:57:02;;;;;;;8.60;6.68;;;4.60;99.90;;;;;;5012216;28;20033;-41
2024/01/07 06:59:28;;;;;;;8.82;6.97;;;4.60;99.90;;;;;;4994522;28;20033;-44
2024/01/07 07:01:56;;;;;;;9.52;7.38;;;4.70;99.90;;;;;;5034623;23;20042;-52
2024/01/07 07:04:21;;;;;;;11.32;7.30;;;4.70;99.90;;;;;;5031328;28;20099;-52
2024/01/07 07:06:48;;;;;;;9.88;6.65;;;4.60;99.90;;;;;;5014571;28;20017;-50
2024/01/07 07:09:14;;;;;;;9.38;7.13;;;4.60;99.90;;;;;;5042297;28;20025;-50
2024/01/07 07:11:40;;;;;;;7.57;5.70;;;4.50;99.90;;;;;;5029635;28;20036;-54
2024/01/07 07:14:06;;;;;;;13.05;7.43;;;4.50;99.90;;;;;;5011515;28;20429;-51
2024/01/07 07:16:32;;;;;;;11.70;7.53;;;4.60;99.90;;;;;;5011689;28;20030;-53
2024/01/07 07:18:57;;;;;;;11.02;6.93;;;4.60;99.90;;;;;;5012076;28;20422;-50
2024/01/07 07:21:23;;;;;;;11.75;7.95;;;4.50;99.90;;;;;;5011833;28;20034;-52
2024/01/07 07:23:49;;;;;;;11.93;7.47;;;4.60;99.90;;;;;;4994359;28;20034;-55
2024/01/07 07:26:14;;;;;;;11.30;7.18;;;4.60;99.90;;;;;;5011936;28;20442;-51
2024/01/07 07:28:40;;;;;;;12.10;7.90;;;4.50;99.90;;;;;;5011824;28;20397;-52
2024/01/07 07:31:05;;;;;;;13.65;8.80;;;4.50;99.90;;;;;;5011469;28;20037;-50
2024/01/07 07:33:31;;;;;;;16.08;8.38;;;4.50;99.90;;;;;;4993968;28;20026;-53
2024/01/07 07:35:57;;;;;;;11.32;8.27;;;4.40;99.90;;;;;;5013475;28;20022;-51
2024/01/07 07:38:23;;;;;;;11.93;7.90;;;4.40;99.90;;;;;;4998306;28;20036;-54
2024/01/07 07:40:52;;;;;;;12.82;8.50;;;4.40;99.90;;;;;;5015818;28;20393;-52
2024/01/07 07:43:21;;;;;;;13.68;8.60;;;4.40;99.90;;;;;;5015577;28;20018;-57
2024/01/07 07:45:47;;;;;;;12.07;8.25;;;4.40;99.90;;;;;;4998741;28;20029;-52
2024/01/07 07:48:13;;;;;;;13.02;7.97;;;4.40;99.90;;;;;;5015825;28;20018;-51
2024/01/07 07:50:40;;;;;;;13.93;8.50;;;4.50;99.90;;;;;;5015690;28;20034;-51
2024/01/07 07:53:06;;;;;;;12.18;8.25;;;4.50;99.90;;;;;;5015533;28;20021;-51
2024/01/07 07:55:32;;;;;;;15.93;8.88;;;4.40;99.90;;;;;;4998056;28;20022;-55
2024/01/07 07:57:57;;;;;;;15.88;9.90;;;4.40;99.90;;;;;;4997883;28;20073;-53
2024/01/07 08:00:23;;;;;;;13.82;8.82;;;4.50;99.90;;;;;;4997918;28;20125;-51
2024/01/07 08:02:49;;;;;;;16.90;10.07;;;4.40;99.90;;;;;;5015126;28;20116;-52
2024/01/07 08:05:16;;;;;;;16.50;9.15;;;4.40;99.90;;;;;;5015252;28;20454;-50
2024/01/07 08:07:42;;;;;;;14.00;9.30;;;4.40;99.90;;;;;;5015397;28;20030;-52
2024/01/07 08:10:10;;;;;;;13.55;8.32;;;4.30;99.90;;;;;;5015331;28;20105;-50
2024/01/07 08:12:36;;;;;;;16.65;8.80;;;4.30;99.90;;;;;;5015170;28;20093;-49
2024/01/07 08:15:02;;;;;;;14.07;8.55;;;4.20;99.90;;;;;;5015315;28;20482;-51
2024/01/07 08:17:28;;;;;;;13.77;8.73;;;4.20;99.90;;;;;;5015456;28;20022;-49
2024/01/07 08:19:54;;;;;;;13.60;8.73;;;4.30;99.90;;;;;;5016298;28;20025;-53
2024/01/07 08:22:19;;;;;;;13.15;8.43;;;4.20;99.90;;;;;;5014790;28;20049;-49
2024/01/07 08:24:45;;;;;;;13.48;9.25;;;4.20;99.90;;;;;;5015031;28;20029;-54
2024/01/07 08:27:10;;;;;;;14.15;8.85;;;4.20;99.90;;;;;;5014075;28;20101;-48
2024/01/07 08:29:36;;;;;;;13.68;8.80;;;4.20;99.90;;;;;;5014995;28;20515;-49
2024/01/07 08:32:02;;;;;;;14.07;8.90;;;4.10;99.90;;;;;;4997390;28;20025;-53
2024/01/07 08:34:28;;;;;;;14.48;8.30;;;4.10;99.90;;;;;;5014865;28;20037;-50
2024/01/07 08:36:56;;;;;;;11.73;8.20;;;4.00;99.90;;;;;;5014907;28;20030;-52
2024/01/07 08:39:22;;;;;;;12.07;8.40;;;4.00;99.90;;;;;;5014851;28;20026;-51
2024/01/07 08:41:47;;;;;;;15.43;9.95;;;4.00;99.90;;;;;;5014717;28;20105;-54
2024/01/07 08:44:13;;;;;;;14.13;9.30;;;4.00;99.90;;;;;;4996728;28;20014;-55
2024/01/07 08:46:38;;;;;;;16.02;9.85;;;4.00;99.90;;;;;;5013210;28;20025;-52
2024/01/07 08:49:04;;;;;;;15.48;9.65;;;4.10;99.90;;;;;;5014949;28;20034;-56
2024/01/07 08:51:29;;;;;;;16.67;9.93;;;4.10;99.90;;;;;;5014243;28;20040;-48
2024/01/07 08:53:57;;;;;;;14.25;9.50;;;4.10;99.90;;;;;;4997127;28;20026;-48
2024/01/07 08:56:23;;;;;;;13.30;8.98;;;4.10;99.90;;;;;;5014238;28;20105;-50
2024/01/07 08:58:48;;;;;;;17.33;9.90;;;4.00;99.90;;;;;;5013770;28;20112;-50
2024/01/07 09:01:14;;;;;;;15.52;9.63;;;4.00;99.90;;;;;;5014300;28;20026;-49
2024/01/07 09:03:40;;;;;;;14.80;10.00;;;4.20;99.90;;;;;;5014149;28;20038;-49
2024/01/07 09:06:05;;;;;;;16.90;10.07;;;4.00;99.90;;;;;;5014458;28;20026;-52
2024/01/07 09:08:32;;;;;;;13.30;9.00;;;3.90;99.90;;;;;;5014793;28;20505;-51
2024/01/07 09:11:00;;;;;;;14.68;9.73;;;4.10;99.90;;;;;;5014804;28;20021;-49
2024/01/07 09:13:25;;;;;;;15.88;9.88;;;4.00;99.90;;;;;;5014461;28;20032;-50
2024/01/07 09:15:51;;;;;;;16.45;10.00;;;4.10;99.90;;;;;;5014759;28;20113;-51
2024/01/07 09:18:16;;;;;;;13.48;9.23;;;4.10;99.90;;;;;;4996933;28;20034;-53
2024/01/07 09:20:42;;;;;;;12.23;9.00;;;4.10;99.90;;;;;;5014398;28;20061;-51
2024/01/07 09:23:07;;;;;;;14.68;8.63;;;4.10;99.90;;;;;;5013899;28;20544;-53
2024/01/07 09:25:33;;;;;;;13.65;9.55;;;4.10;99.90;;;;;;5014235;28;20026;-55
2024/01/07 09:27:58;;;;;;;14.68;9.25;;;4.00;99.90;;;;;;5014238;28;20097;-50
2024/01/07 09:30:24;;;;;;;15.18;9.35;;;4.00;99.90;;;;;;4996372;28;20092;-51
2024/01/07 09:32:50;;;;;;;15.80;9.98;;;4.00;99.90;;;;;;5013796;28;20029;-54
2024/01/07 09:35:15;;;;;;;17.38;10.13;;;3.90;99.90;;;;;;5013708;28;20401;-54
2024/01/07 09:37:41;;;;;;;17.33;9.80;;;3.90;99.90;;;;;;5013793;28;20547;-49
2024/01/07 09:40:07;;;;;;;11.90;8.85;;;3.90;99.90;;;;;;5013461;28;20087;-52
2024/01/07 09:42:33;;;;;;;14.45;9.32;;;3.90;99.90;;;;;;5012478;28;20029;-50
2024/01/07 09:45:03;;;;;;;13.80;9.38;;;3.80;99.90;;;;;;5012921;28;20486;-53
2024/01/07 09:47:29;;;;;;;15.93;9.95;;;3.80;99.90;;;;;;5013608;28;20025;-52
2024/01/07 09:49:55;;;;;;;15.18;9.75;;;3.80;99.90;;;;;;5013543;28;20402;-52
2024/01/07 09:52:21;;;;;;;14.07;9.13;;;3.90;99.90;;;;;;5013586;28;20026;-51
2024/01/07 09:54:51;;;;;;;14.38;8.63;;;3.90;99.90;;;;;;4995525;28;20192;-51
2024/01/07 09:57:16;;;;;;;15.05;9.45;;;3.90;99.90;;;;;;4995357;28;20026;-51
2024/01/07 09:59:42;;;;;;;14.15;9.55;;;4.00;99.90;;;;;;5012960;28;20030;-57
2024/01/07 10:02:07;;;;;;;19.42;9.85;;;4.00;99.90;;;;;;5013033;28;20033;-50
2024/01/07 10:04:33;;;;;;;15.07;9.57;;;4.00;99.90;;;;;;5012794;28;20108;-56
2024/01/07 10:06:59;;;;;;;15.15;9.88;;;3.90;99.90;;;;;;5013538;28;20030;-56
2024/01/07 10:09:29;;;;;;;15.35;9.50;;;3.80;99.90;;;;;;5013119;28;20025;-51
2024/01/07 10:11:55;;;;;;;14.63;7.55;;;3.80;99.90;;;;;;5012782;28;20065;-53
2024/01/07 10:14:25;;;;;;;12.93;8.90;;;3.80;99.90;;;;;;5012893;28;20041;-52
2024/01/07 10:16:51;;;;;;;13.82;9.13;;;3.90;99.90;;;;;;5013032;28;20020;-53
2024/01/07 10:19:24;;;;;;;11.30;7.40;;;3.90;99.90;;;;;;5013478;28;20105;-53
2024/01/07 10:22:03;;;;;;;12.85;8.13;;;3.80;99.90;;;;;;5012894;28;20108;-56
2024/01/07 10:24:38;;;;;;;12.07;8.10;;;3.80;99.90;;;;;;5012901;28;20034;-53
2024/01/07 10:27:04;;;;;;;14.90;9.27;;;3.80;99.90;;;;;;5012722;28;20049;-52
2024/01/07 10:29:30;;;;;;;11.93;8.35;;;3.90;99.90;;;;;;5013038;28;20104;-56
2024/01/07 10:31:58;;;;;;;13.35;8.77;;;3.90;99.90;;;;;;5012858;28;20064;-54
2024/01/07 10:34:24;;;;;;;12.88;8.93;;;3.90;99.90;;;;;;5012481;28;20424;-50
2024/01/07 10:36:54;;;;;;;12.38;8.82;;;3.80;99.90;;;;;;5012797;28;20060;-51
2024/01/07 10:39:20;;;;;;;13.30;9.38;;;3.90;99.90;;;;;;5013031;28;20022;-54
2024/01/07 10:41:47;;;;;;;13.75;9.02;;;4.00;99.90;;;;;;5012544;28;20556;-51
2024/01/07 10:44:13;;;;;;;10.48;7.07;;;4.00;99.90;;;;;;5012621;28;20026;-50
2024/01/07 10:46:40;;;;;;;8.63;6.15;;;3.90;99.90;;;;;;4995032;28;20115;-52
2024/01/07 10:49:23;;;;;;;8.40;7.15;;;3.80;99.90;;;;;;4995205;28;20056;-55
2024/01/07 10:52:04;;;;;;;8.38;6.88;;;3.90;99.90;;;;;;5012615;28;20400;-52
2024/01/07 10:54:30;;;;;;;13.73;7.47;;;3.80;99.90;;;;;;5012527;28;20050;-55
2024/01/07 10:56:59;;;;;;;8.45;6.72;;;3.90;99.90;;;;;;5012354;28;20026;-55
2024/01/07 10:59:26;;;;;;;10.50;7.65;;;3.80;99.90;;;;;;5012348;28;20025;-52
2024/01/07 11:01:52;;;;;;;9.52;7.65;;;3.80;99.90;;;;;;4994615;28;20408;-51
2024/01/07 11:04:33;;;;;;;8.95;7.07;;;3.70;99.90;;;;;;5012262;28;20084;-53
2024/01/07 11:07:37;;;;;;;18.90;12.35;;;3.60;99.90;;;;;;4994120;28;20036;-53
2024/01/07 11:10:14;;;;;;;8.82;6.45;;;3.70;99.90;;;;;;5011952;28;20516;-54
2024/01/07 11:12:40;;;;;;;10.35;6.93;;;3.80;99.90;;;;;;5011783;28;20034;-55
2024/01/07 11:15:05;;;;;;;8.90;6.90;;;3.70;99.90;;;;;;5011865;28;20404;-52
2024/01/07 11:17:37;;;;;;;10.40;6.97;;;3.80;99.90;;;;;;5012195;28;20437;-53
2024/01/07 11:20:08;;;;;;;11.23;7.22;;;3.70;99.90;;;;;;5011994;28;20030;-52
2024/01/07 11:22:33;;;;;;;11.25;7.15;;;3.70;99.90;;;;;;4993965;28;20026;-53
2024/01/07 11:25:01;;;;;;;11.13;7.72;;;3.70;99.90;;;;;;5011664;28;20018;-52
2024/01/07 11:27:31;;;;;;;12.00;8.80;;;3.70;99.90;;;;;;5012200;28;20033;-53
2024/01/07 11:29:57;;;;;;;10.85;7.03;;;3.80;99.90;;;;;;5011958;28;20436;-51
2024/01/07 11:32:27;;;;;;;10.15;7.15;;;3.80;99.90;;;;;;5012052;28;20026;-55
2024/01/07 11:34:53;;;;;;;11.38;7.78;;;3.70;99.90;;;;;;5012296;28;20037;-52
2024/01/07 11:37:19;;;;;;;11.40;7.43;;;3.70;99.90;;;;;;5012296;28;20026;-54
2024/01/07 11:39:47;;;;;;;7.72;6.28;;;3.60;99.90;;;;;;4994817;28;20075;-50
2024/01/07 11:42:13;;;;;;;9.73;7.22;;;3.50;99.90;;;;;;5011831;28;20034;-53
2024/01/07 11:44:50;;;;;;;10.80;7.20;;;3.50;99.90;;;;;;5011832;28;20030;-52
2024/01/07 11:47:16;;;;;;;11.60;7.25;;;3.60;99.90;;;;;;5012525;28;20022;-55
2024/01/07 11:49:42;;;;;;;8.95;6.93;;;3.60;99.90;;;;;;5012238;28;20477;-59
2024/01/07 11:52:10;;;;;;;15.00;7.75;;;3.60;99.90;;;;;;5011901;28;20090;-56
2024/01/07 11:54:39;;;;;;;11.60;7.10;;;3.70;99.90;;;;;;5012436;28;20029;-56
2024/01/07 11:57:10;;;;;;;13.48;8.15;;;3.70;99.90;;;;;;4994675;28;20092;-54
2024/01/07 11:59:36;;;;;;;12.35;8.02;;;3.80;99.90;;;;;;4994844;28;20092;-54
2024/01/07 12:02:06;;;;;;;10.50;7.43;;;3.70;99.90;;;;;;4994363;28;20406;-54
2024/01/07 12:04:33;;;;;;;11.73;8.25;;;3.80;99.90;;;;;;5011958;28;20022;-51
2024/01/07 12:06:58;;;;;;;11.32;7.63;;;3.70;99.90;;;;;;4994149;28;20547;-52
2024/01/07 12:09:25;;;;;;;11.30;7.45;;;3.70;99.90;;;;;;5011847;28;20025;-57
2024/01/07 12:11:51;;;;;;;12.02;7.78;;;3.70;99.90;;;;;;5011468;28;20022;-55
2024/01/07 12:14:17;;;;;;;11.82;7.82;;;3.60;99.90;;;;;;4993745;28;20036;-48
2024/01/07 12:16:43;;;;;;;10.90;8.13;;;3.60;99.90;;;;;;5011399;28;20026;-50
2024/01/07 12:19:09;;;;;;;8.27;5.72;;;3.60;99.90;;;;;;5010667;28;20038;-55
2024/01/07 12:21:35;;;;;;;12.73;7.40;;;3.50;99.90;;;;;;5006165;28;20536;-48
2024/01/07 12:24:01;;;;;;;10.10;7.35;;;3.50;99.90;;;;;;5022683;28;20038;-52
2024/01/07 12:26:27;;;;;;;10.10;7.38;;;3.60;99.90;;;;;;5017360;28;20030;-52
2024/01/07 12:28:55;;;;;;;9.20;6.57;;;3.50;99.90;;;;;;5003434;28;20523;-51
2024/01/07 12:31:21;;;;;;;30.05;17.10;;;3.60;99.90;;;;;;5014059;28;20089;-50
2024/01/07 12:33:47;;;;;;;13.52;8.00;;;3.60;99.90;;;;;;4996649;28;20121;-55
2024/01/07 12:36:13;;;;;;;10.98;7.50;;;3.40;99.90;;;;;;5021639;28;20366;-52
2024/01/07 12:38:38;;;;;;;13.20;7.93;;;3.30;99.90;;;;;;5021872;28;20028;-54
2024/01/07 12:41:04;;;;;;;11.38;7.07;;;3.40;99.90;;;;;;5014548;28;20092;-57
2024/01/07 12:43:30;;;;;;;14.00;7.53;;;3.30;99.90;;;;;;5015971;28;20018;-48
2024/01/07 12:45:56;;;;;;;12.80;8.07;;;3.30;99.90;;;;;;5013979;28;20496;-51
2024/01/07 12:48:22;;;;;;;10.32;7.65;;;3.30;99.90;;;;;;5016169;28;20152;-60